sensor_id;sensor_type;location;lat;lon;timestamp;temperature;humidity
57833;DHT22;43667;53.036;6.740;2022-08-14T00:00:18;21.40;97.70
57833;DHT22;43667;53.036;6.740;2022-08-14T00:02:44;21.30;97.50
57833;DHT22;43667;53.036;6.740;2022-08-14T00:05:13;21.50;97.40
57833;DHT22;43667;53.036;6.740;2022-08-14T00:07:39;21.30;98.00
57833;DHT22;43667;53.036;6.740;2022-08-14T00:10:08;21.30;98.30
57833;DHT22;43667;53.036;6.740;2022-08-14T00:12:36;21.30;98.30
57833;DHT22;43667;53.036;6.740;2022-08-14T00:15:11;21.20;98.20
57833;DHT22;43667;53.036;6.740;2022-08-14T00:17:37;21.20;98.30
57833;DHT22;43667;53.036;6.740;2022-08-14T00:20:04;21.10;98.60
57833;DHT22;43667;53.036;6.740;2022-08-14T00:22:30;21.20;98.30
57833;DHT22;43667;53.036;6.740;2022-08-14T00:24:55;21.10;98.40
57833;DHT22;43667;53.036;6.740;2022-08-14T00:27:21;21.00;98.40
57833;DHT22;43667;53.036;6.740;2022-08-14T00:29:46;21.00;98.60
57833;DHT22;43667;53.036;6.740;2022-08-14T00:32:12;21.00;98.90
57833;DHT22;43667;53.036;6.740;2022-08-14T00:34:38;20.90;99.10
57833;DHT22;43667;53.036;6.740;2022-08-14T00:37:03;20.90;98.70
57833;DHT22;43667;53.036;6.740;2022-08-14T00:39:30;20.80;99.00
57833;DHT22;43667;53.036;6.740;2022-08-14T00:41:56;20.70;99.50
57833;DHT22;43667;53.036;6.740;2022-08-14T00:44:21;20.70;99.90
57833;DHT22;43667;53.036;6.740;2022-08-14T00:46:47;20.70;99.90
57833;DHT22;43667;53.036;6.740;2022-08-14T00:49:14;20.60;99.90
57833;DHT22;43667;53.036;6.740;2022-08-14T00:51:40;20.60;99.90
57833;DHT22;43667;53.036;6.740;2022-08-14T00:54:08;20.60;99.90
57833;DHT22;43667;53.036;6.740;2022-08-14T00:56:35;20.60;99.90
57833;DHT22;43667;53.036;6.740;2022-08-14T00:59:02;20.50;99.90
57833;DHT22;43667;53.036;6.740;2022-08-14T01:01:28;20.50;99.90
57833;DHT22;43667;53.036;6.740;2022-08-14T01:03:54;20.50;99.90
57833;DHT22;43667;53.036;6.740;2022-08-14T01:06:22;20.50;99.90
57833;DHT22;43667;53.036;6.740;2022-08-14T01:08:48;20.40;99.90
57833;DHT22;43667;53.036;6.740;2022-08-14T01:11:15;20.40;99.90
57833;DHT22;43667;53.036;6.740;2022-08-14T01:13:43;20.40;99.90
57833;DHT22;43667;53.036;6.740;2022-08-14T01:16:14;20.40;99.90
57833;DHT22;43667;53.036;6.740;2022-08-14T01:18:41;20.30;99.90
57833;DHT22;43667;53.036;6.740;2022-08-14T01:21:35;20.30;99.90
57833;DHT22;43667;53.036;6.740;2022-08-14T01:24:02;20.20;99.90
57833;DHT22;43667;53.036;6.740;2022-08-14T01:26:28;20.30;99.90
57833;DHT22;43667;53.036;6.740;2022-08-14T01:28:56;20.10;99.90
57833;DHT22;43667;53.036;6.740;2022-08-14T01:31:26;20.20;99.90
57833;DHT22;43667;53.036;6.740;2022-08-14T01:33:56;20.10;99.90
57833;DHT22;43667;53.036;6.740;2022-08-14T01:36:24;20.10;99.90
57833;DHT22;43667;53.036;6.740;2022-08-14T01:38:53;20.10;99.90
57833;DHT22;43667;53.036;6.740;2022-08-14T01:41:21;20.10;99.90
57833;DHT22;43667;53.036;6.740;2022-08-14T01:43:59;20.10;99.90
57833;DHT22;43667;53.036;6.740;2022-08-14T01:46:35;20.00;99.90
57833;DHT22;43667;53.036;6.740;2022-08-14T01:49:05;20.10;99.90
57833;DHT22;43667;53.036;6.740;2022-08-14T01:51:32;20.00;99.90
57833;DHT22;43667;53.036;6.740;2022-08-14T01:54:01;19.90;99.90
57833;DHT22;43667;53.036;6.740;2022-08-14T01:56:29;19.90;99.90
57833;DHT22;43667;53.036;6.740;2022-08-14T02:01:42;19.80;99.90
57833;DHT22;43667;53.036;6.740;2022-08-14T02:04:08;19.80;99.90
57833;DHT22;43667;53.036;6.740;2022-08-14T02:06:35;19.80;99.90
57833;DHT22;43667;53.036;6.740;2022-08-14T02:09:03;19.70;99.90
57833;DHT22;43667;53.036;6.740;2022-08-14T02:11:29;19.60;99.90
57833;DHT22;43667;53.036;6.740;2022-08-14T02:14:04;19.70;99.90
57833;DHT22;43667;53.036;6.740;2022-08-14T02:16:33;19.70;99.90
57833;DHT22;43667;53.036;6.740;2022-08-14T02:19:05;19.60;99.90
57833;DHT22;43667;53.036;6.740;2022-08-14T02:21:34;19.50;99.90
57833;DHT22;43667;53.036;6.740;2022-08-14T02:24:01;19.50;99.90
57833;DHT22;43667;53.036;6.740;2022-08-14T02:26:30;19.60;99.90
57833;DHT22;43667;53.036;6.740;2022-08-14T02:28:59;19.60;99.90
57833;DHT22;43667;53.036;6.740;2022-08-14T02:31:30;19.60;99.90
57833;DHT22;43667;53.036;6.740;2022-08-14T02:33:58;19.50;99.90
57833;DHT22;43667;53.036;6.740;2022-08-14T02:36:25;19.50;99.90
57833;DHT22;43667;53.036;6.740;2022-08-14T02:38:51;19.50;99.90
57833;DHT22;43667;53.036;6.740;2022-08-14T02:41:17;19.50;99.90
57833;DHT22;43667;53.036;6.740;2022-08-14T02:43:43;19.40;99.90
57833;DHT22;43667;53.036;6.740;2022-08-14T02:46:10;19.40;99.90
57833;DHT22;43667;53.036;6.740;2022-08-14T02:48:38;19.40;99.90
57833;DHT22;43667;53.036;6.740;2022-08-14T02:51:10;19.40;99.90
57833;DHT22;43667;53.036;6.740;2022-08-14T02:53:39;19.30;99.90
57833;DHT22;43667;53.036;6.740;2022-08-14T02:56:06;19.30;99.90
57833;DHT22;43667;53.036;6.740;2022-08-14T02:58:34;19.30;99.90
57833;DHT22;43667;53.036;6.740;2022-08-14T03:01:03;19.30;99.90
57833;DHT22;43667;53.036;6.740;2022-08-14T03:03:29;19.20;99.90
57833;DHT22;43667;53.036;6.740;2022-08-14T03:05:55;19.20;99.90
57833;DHT22;43667;53.036;6.740;2022-08-14T03:08:22;19.20;99.90
57833;DHT22;43667;53.036;6.740;2022-08-14T03:10:48;19.20;99.90
57833;DHT22;43667;53.036;6.740;2022-08-14T03:13:14;19.10;99.90
57833;DHT22;43667;53.036;6.740;2022-08-14T03:15:39;19.10;99.90
57833;DHT22;43667;53.036;6.740;2022-08-14T03:18:12;19.00;99.90
57833;DHT22;43667;53.036;6.740;2022-08-14T03:20:38;19.10;99.90
57833;DHT22;43667;53.036;6.740;2022-08-14T03:23:04;19.10;99.90
57833;DHT22;43667;53.036;6.740;2022-08-14T03:25:30;19.10;99.90
57833;DHT22;43667;53.036;6.740;2022-08-14T03:27:58;19.00;99.90
57833;DHT22;43667;53.036;6.740;2022-08-14T03:30:27;19.00;99.90
57833;DHT22;43667;53.036;6.740;2022-08-14T03:32:53;19.00;99.90
57833;DHT22;43667;53.036;6.740;2022-08-14T03:35:19;18.80;99.90
57833;DHT22;43667;53.036;6.740;2022-08-14T03:37:45;18.90;99.90
57833;DHT22;43667;53.036;6.740;2022-08-14T03:40:11;18.80;99.90
57833;DHT22;43667;53.036;6.740;2022-08-14T03:42:37;18.90;99.90
57833;DHT22;43667;53.036;6.740;2022-08-14T03:45:04;18.90;99.90
57833;DHT22;43667;53.036;6.740;2022-08-14T03:47:30;18.90;99.90
57833;DHT22;43667;53.036;6.740;2022-08-14T03:50:06;18.80;99.90
57833;DHT22;43667;53.036;6.740;2022-08-14T03:52:36;18.90;99.90
57833;DHT22;43667;53.036;6.740;2022-08-14T03:55:06;18.90;99.90
57833;DHT22;43667;53.036;6.740;2022-08-14T03:57:34;18.90;99.90
57833;DHT22;43667;53.036;6.740;2022-08-14T04:00:02;18.80;99.90
57833;DHT22;43667;53.036;6.740;2022-08-14T04:02:31;18.80;99.90
57833;DHT22;43667;53.036;6.740;2022-08-14T04:04:57;18.80;99.90
57833;DHT22;43667;53.036;6.740;2022-08-14T04:07:22;18.80;99.90
57833;DHT22;43667;53.036;6.740;2022-08-14T04:09:48;18.80;99.90
57833;DHT22;43667;53.036;6.740;2022-08-14T04:12:13;18.80;99.90
57833;DHT22;43667;53.036;6.740;2022-08-14T04:14:39;18.70;99.90
57833;DHT22;43667;53.036;6.740;2022-08-14T04:17:04;18.70;99.90
57833;DHT22;43667;53.036;6.740;2022-08-14T04:19:30;18.70;99.90
57833;DHT22;43667;53.036;6.740;2022-08-14T04:21:56;18.80;99.90
57833;DHT22;43667;53.036;6.740;2022-08-14T04:24:22;18.70;99.90
57833;DHT22;43667;53.036;6.740;2022-08-14T04:26:47;18.80;99.90
57833;DHT22;43667;53.036;6.740;2022-08-14T04:29:13;18.70;99.90
57833;DHT22;43667;53.036;6.740;2022-08-14T04:31:39;18.70;99.90
57833;DHT22;43667;53.036;6.740;2022-08-14T04:34:05;18.70;99.90
57833;DHT22;43667;53.036;6.740;2022-08-14T04:36:31;18.80;99.90
57833;DHT22;43667;53.036;6.740;2022-08-14T04:39:17;18.70;99.90
57833;DHT22;43667;53.036;6.740;2022-08-14T04:42:01;18.70;99.90
57833;DHT22;43667;53.036;6.740;2022-08-14T04:44:45;18.70;99.90
57833;DHT22;43667;53.036;6.740;2022-08-14T04:47:10;18.70;99.90
57833;DHT22;43667;53.036;6.740;2022-08-14T04:49:54;18.80;99.90
57833;DHT22;43667;53.036;6.740;2022-08-14T04:52:20;18.80;99.90
57833;DHT22;43667;53.036;6.740;2022-08-14T04:54:46;18.80;99.90
57833;DHT22;43667;53.036;6.740;2022-08-14T04:57:12;18.80;99.90
57833;DHT22;43667;53.036;6.740;2022-08-14T04:59:39;18.90;99.90
57833;DHT22;43667;53.036;6.740;2022-08-14T05:02:04;18.80;99.90
57833;DHT22;43667;53.036;6.740;2022-08-14T05:04:30;18.90;99.90
57833;DHT22;43667;53.036;6.740;2022-08-14T05:06:56;18.90;99.90
57833;DHT22;43667;53.036;6.740;2022-08-14T05:09:24;18.80;99.90
57833;DHT22;43667;53.036;6.740;2022-08-14T05:11:50;19.00;99.90
57833;DHT22;43667;53.036;6.740;2022-08-14T05:14:15;19.00;99.90
57833;DHT22;43667;53.036;6.740;2022-08-14T05:16:43;19.00;99.90
57833;DHT22;43667;53.036;6.740;2022-08-14T05:19:09;19.20;99.90
57833;DHT22;43667;53.036;6.740;2022-08-14T05:21:39;19.10;99.90
57833;DHT22;43667;53.036;6.740;2022-08-14T05:24:06;19.20;99.90
57833;DHT22;43667;53.036;6.740;2022-08-14T05:26:32;19.20;99.90
57833;DHT22;43667;53.036;6.740;2022-08-14T05:28:58;19.30;99.90
57833;DHT22;43667;53.036;6.740;2022-08-14T05:31:23;19.40;99.90
57833;DHT22;43667;53.036;6.740;2022-08-14T05:33:49;19.40;99.90
57833;DHT22;43667;53.036;6.740;2022-08-14T05:36:15;19.40;99.90
57833;DHT22;43667;53.036;6.740;2022-08-14T05:38:42;19.40;99.90
57833;DHT22;43667;53.036;6.740;2022-08-14T05:41:17;19.50;99.90
57833;DHT22;43667;53.036;6.740;2022-08-14T05:43:44;19.60;99.90
57833;DHT22;43667;53.036;6.740;2022-08-14T05:46:16;19.60;99.90
57833;DHT22;43667;53.036;6.740;2022-08-14T05:48:49;19.70;99.90
57833;DHT22;43667;53.036;6.740;2022-08-14T05:51:15;19.80;99.90
57833;DHT22;43667;53.036;6.740;2022-08-14T05:53:40;19.90;99.90
57833;DHT22;43667;53.036;6.740;2022-08-14T05:56:06;19.90;99.90
57833;DHT22;43667;53.036;6.740;2022-08-14T05:58:32;20.20;99.90
57833;DHT22;43667;53.036;6.740;2022-08-14T06:00:57;20.20;99.90
57833;DHT22;43667;53.036;6.740;2022-08-14T06:03:23;20.50;99.90
57833;DHT22;43667;53.036;6.740;2022-08-14T06:05:52;20.50;99.90
57833;DHT22;43667;53.036;6.740;2022-08-14T06:08:36;20.60;99.90
57833;DHT22;43667;53.036;6.740;2022-08-14T06:11:04;20.90;99.90
57833;DHT22;43667;53.036;6.740;2022-08-14T06:13:36;21.00;99.90
57833;DHT22;43667;53.036;6.740;2022-08-14T06:16:02;21.20;99.90
57833;DHT22;43667;53.036;6.740;2022-08-14T06:18:28;21.30;99.90
57833;DHT22;43667;53.036;6.740;2022-08-14T06:20:53;21.60;99.90
57833;DHT22;43667;53.036;6.740;2022-08-14T06:23:19;21.60;99.90
57833;DHT22;43667;53.036;6.740;2022-08-14T06:25:45;21.70;99.90
57833;DHT22;43667;53.036;6.740;2022-08-14T06:28:18;21.90;99.90
57833;DHT22;43667;53.036;6.740;2022-08-14T06:30:44;22.00;99.90
57833;DHT22;43667;53.036;6.740;2022-08-14T06:33:10;22.20;99.90
57833;DHT22;43667;53.036;6.740;2022-08-14T06:35:35;22.20;99.90
57833;DHT22;43667;53.036;6.740;2022-08-14T06:38:01;22.30;99.90
57833;DHT22;43667;53.036;6.740;2022-08-14T06:40:30;22.40;99.90
57833;DHT22;43667;53.036;6.740;2022-08-14T06:43:01;22.60;99.90
57833;DHT22;43667;53.036;6.740;2022-08-14T06:45:27;22.60;99.90
57833;DHT22;43667;53.036;6.740;2022-08-14T06:47:54;22.70;99.90
57833;DHT22;43667;53.036;6.740;2022-08-14T06:50:21;22.90;99.90
57833;DHT22;43667;53.036;6.740;2022-08-14T06:52:47;23.10;99.90
57833;DHT22;43667;53.036;6.740;2022-08-14T06:55:15;23.20;99.80
57833;DHT22;43667;53.036;6.740;2022-08-14T06:57:44;23.40;99.50
57833;DHT22;43667;53.036;6.740;2022-08-14T07:00:21;23.50;98.90
57833;DHT22;43667;53.036;6.740;2022-08-14T07:02:47;23.70;98.30
57833;DHT22;43667;53.036;6.740;2022-08-14T07:05:32;23.90;98.10
57833;DHT22;43667;53.036;6.740;2022-08-14T07:08:20;24.00;97.30
57833;DHT22;43667;53.036;6.740;2022-08-14T07:10:51;24.20;97.00
57833;DHT22;43667;53.036;6.740;2022-08-14T07:13:17;24.50;96.40
57833;DHT22;43667;53.036;6.740;2022-08-14T07:15:48;24.50;95.80
57833;DHT22;43667;53.036;6.740;2022-08-14T07:18:22;24.70;95.60
57833;DHT22;43667;53.036;6.740;2022-08-14T07:20:49;24.80;94.60
57833;DHT22;43667;53.036;6.740;2022-08-14T07:23:15;24.90;94.30
57833;DHT22;43667;53.036;6.740;2022-08-14T07:25:42;25.10;93.90
57833;DHT22;43667;53.036;6.740;2022-08-14T07:28:17;25.20;93.40
57833;DHT22;43667;53.036;6.740;2022-08-14T07:30:43;25.40;93.20
57833;DHT22;43667;53.036;6.740;2022-08-14T07:33:10;25.60;92.20
57833;DHT22;43667;53.036;6.740;2022-08-14T07:35:37;25.70;91.40
57833;DHT22;43667;53.036;6.740;2022-08-14T07:38:05;25.90;90.50
57833;DHT22;43667;53.036;6.740;2022-08-14T07:40:31;26.00;90.40
57833;DHT22;43667;53.036;6.740;2022-08-14T07:42:56;26.10;89.60
57833;DHT22;43667;53.036;6.740;2022-08-14T07:45:22;26.30;89.60
57833;DHT22;43667;53.036;6.740;2022-08-14T07:47:48;26.30;86.70
57833;DHT22;43667;53.036;6.740;2022-08-14T07:50:16;26.60;83.90
57833;DHT22;43667;53.036;6.740;2022-08-14T07:52:43;26.70;83.00
57833;DHT22;43667;53.036;6.740;2022-08-14T07:55:10;26.70;81.50
57833;DHT22;43667;53.036;6.740;2022-08-14T07:57:42;26.80;79.70
57833;DHT22;43667;53.036;6.740;2022-08-14T08:00:10;26.90;79.20
57833;DHT22;43667;53.036;6.740;2022-08-14T08:02:39;26.90;78.70
57833;DHT22;43667;53.036;6.740;2022-08-14T08:05:07;27.00;78.20
57833;DHT22;43667;53.036;6.740;2022-08-14T08:07:34;27.20;78.30
57833;DHT22;43667;53.036;6.740;2022-08-14T08:10:10;27.40;74.70
57833;DHT22;43667;53.036;6.740;2022-08-14T08:13:17;27.50;73.60
57833;DHT22;43667;53.036;6.740;2022-08-14T08:15:43;27.60;72.00
57833;DHT22;43667;53.036;6.740;2022-08-14T08:18:11;27.90;70.80
57833;DHT22;43667;53.036;6.740;2022-08-14T08:20:46;27.80;70.00
57833;DHT22;43667;53.036;6.740;2022-08-14T08:23:13;28.00;68.40
57833;DHT22;43667;53.036;6.740;2022-08-14T08:25:45;28.00;67.50
57833;DHT22;43667;53.036;6.740;2022-08-14T08:28:22;28.10;67.70
57833;DHT22;43667;53.036;6.740;2022-08-14T08:30:49;28.20;66.50
57833;DHT22;43667;53.036;6.740;2022-08-14T08:33:16;28.30;65.80
57833;DHT22;43667;53.036;6.740;2022-08-14T08:35:42;28.40;65.30
57833;DHT22;43667;53.036;6.740;2022-08-14T08:38:13;28.40;65.10
57833;DHT22;43667;53.036;6.740;2022-08-14T08:40:43;28.50;65.20
57833;DHT22;43667;53.036;6.740;2022-08-14T08:43:26;28.60;63.60
57833;DHT22;43667;53.036;6.740;2022-08-14T08:45:57;28.90;62.40
57833;DHT22;43667;53.036;6.740;2022-08-14T08:48:26;29.30;60.70
57833;DHT22;43667;53.036;6.740;2022-08-14T08:51:00;29.10;60.50
57833;DHT22;43667;53.036;6.740;2022-08-14T08:53:32;29.30;59.60
57833;DHT22;43667;53.036;6.740;2022-08-14T08:55:58;29.40;58.30
57833;DHT22;43667;53.036;6.740;2022-08-14T08:58:25;29.40;58.50
57833;DHT22;43667;53.036;6.740;2022-08-14T09:00:56;29.40;57.80
57833;DHT22;43667;53.036;6.740;2022-08-14T09:03:23;29.40;57.40
57833;DHT22;43667;53.036;6.740;2022-08-14T09:05:58;29.60;56.90
57833;DHT22;43667;53.036;6.740;2022-08-14T09:08:27;29.50;56.20
57833;DHT22;43667;53.036;6.740;2022-08-14T09:10:55;29.50;56.60
57833;DHT22;43667;53.036;6.740;2022-08-14T09:13:22;29.70;56.40
57833;DHT22;43667;53.036;6.740;2022-08-14T09:15:51;29.80;56.20
57833;DHT22;43667;53.036;6.740;2022-08-14T09:18:19;29.90;56.10
57833;DHT22;43667;53.036;6.740;2022-08-14T09:20:48;30.00;55.40
57833;DHT22;43667;53.036;6.740;2022-08-14T09:23:14;29.90;55.60
57833;DHT22;43667;53.036;6.740;2022-08-14T09:25:41;30.00;54.90
57833;DHT22;43667;53.036;6.740;2022-08-14T09:28:07;29.90;55.20
57833;DHT22;43667;53.036;6.740;2022-08-14T09:30:36;30.00;54.50
57833;DHT22;43667;53.036;6.740;2022-08-14T09:33:06;29.90;54.40
57833;DHT22;43667;53.036;6.740;2022-08-14T09:38:45;30.50;53.80
57833;DHT22;43667;53.036;6.740;2022-08-14T09:44:19;30.80;52.40
57833;DHT22;43667;53.036;6.740;2022-08-14T09:46:56;30.70;52.00
57833;DHT22;43667;53.036;6.740;2022-08-14T09:49:36;30.70;52.80
57833;DHT22;43667;53.036;6.740;2022-08-14T09:52:11;30.80;52.20
57833;DHT22;43667;53.036;6.740;2022-08-14T09:54:42;30.90;51.80
57833;DHT22;43667;53.036;6.740;2022-08-14T09:57:25;30.90;51.90
57833;DHT22;43667;53.036;6.740;2022-08-14T09:59:51;31.30;51.50
57833;DHT22;43667;53.036;6.740;2022-08-14T10:02:22;31.40;50.30
57833;DHT22;43667;53.036;6.740;2022-08-14T10:05:09;31.50;49.40
57833;DHT22;43667;53.036;6.740;2022-08-14T10:07:45;31.30;49.40
57833;DHT22;43667;53.036;6.740;2022-08-14T10:10:27;31.30;49.70
57833;DHT22;43667;53.036;6.740;2022-08-14T10:12:53;31.30;49.90
57833;DHT22;43667;53.036;6.740;2022-08-14T10:15:22;31.40;49.70
57833;DHT22;43667;53.036;6.740;2022-08-14T10:18:01;31.40;49.10
57833;DHT22;43667;53.036;6.740;2022-08-14T10:20:34;31.50;49.40
57833;DHT22;43667;53.036;6.740;2022-08-14T10:23:10;31.40;49.60
57833;DHT22;43667;53.036;6.740;2022-08-14T10:25:41;31.60;48.70
57833;DHT22;43667;53.036;6.740;2022-08-14T10:28:09;31.60;49.00
57833;DHT22;43667;53.036;6.740;2022-08-14T10:30:35;31.90;49.10
57833;DHT22;43667;53.036;6.740;2022-08-14T10:33:03;32.00;47.20
57833;DHT22;43667;53.036;6.740;2022-08-14T10:35:39;31.80;47.20
57833;DHT22;43667;53.036;6.740;2022-08-14T10:38:04;31.90;47.70
57833;DHT22;43667;53.036;6.740;2022-08-14T10:40:31;32.00;47.80
57833;DHT22;43667;53.036;6.740;2022-08-14T10:42:57;32.10;47.60
57833;DHT22;43667;53.036;6.740;2022-08-14T10:45:31;32.10;47.20
57833;DHT22;43667;53.036;6.740;2022-08-14T10:47:57;32.20;47.10
57833;DHT22;43667;53.036;6.740;2022-08-14T10:50:34;32.30;47.20
57833;DHT22;43667;53.036;6.740;2022-08-14T10:53:01;32.30;46.90
57833;DHT22;43667;53.036;6.740;2022-08-14T10:55:35;32.40;46.60
57833;DHT22;43667;53.036;6.740;2022-08-14T10:58:06;32.50;46.40
57833;DHT22;43667;53.036;6.740;2022-08-14T11:00:40;32.40;46.30
57833;DHT22;43667;53.036;6.740;2022-08-14T11:03:09;32.30;46.80
57833;DHT22;43667;53.036;6.740;2022-08-14T11:05:48;32.20;47.30
57833;DHT22;43667;53.036;6.740;2022-08-14T11:08:15;32.10;47.50
57833;DHT22;43667;53.036;6.740;2022-08-14T11:10:57;32.20;46.90
57833;DHT22;43667;53.036;6.740;2022-08-14T11:13:25;32.30;46.90
57833;DHT22;43667;53.036;6.740;2022-08-14T11:15:52;32.50;46.60
57833;DHT22;43667;53.036;6.740;2022-08-14T11:18:21;32.60;46.40
57833;DHT22;43667;53.036;6.740;2022-08-14T11:20:52;32.80;46.00
57833;DHT22;43667;53.036;6.740;2022-08-14T11:23:26;32.90;45.50
57833;DHT22;43667;53.036;6.740;2022-08-14T11:25:53;32.90;45.70
57833;DHT22;43667;53.036;6.740;2022-08-14T11:28:23;32.90;45.70
57833;DHT22;43667;53.036;6.740;2022-08-14T11:30:50;32.90;46.10
57833;DHT22;43667;53.036;6.740;2022-08-14T11:33:24;32.90;45.80
57833;DHT22;43667;53.036;6.740;2022-08-14T11:35:50;32.80;45.50
57833;DHT22;43667;53.036;6.740;2022-08-14T11:38:17;32.70;45.30
57833;DHT22;43667;53.036;6.740;2022-08-14T11:40:44;32.80;45.50
57833;DHT22;43667;53.036;6.740;2022-08-14T11:43:10;32.80;45.10
57833;DHT22;43667;53.036;6.740;2022-08-14T11:45:38;32.80;45.20
57833;DHT22;43667;53.036;6.740;2022-08-14T11:48:22;32.80;45.10
57833;DHT22;43667;53.036;6.740;2022-08-14T11:50:49;32.90;45.40
57833;DHT22;43667;53.036;6.740;2022-08-14T11:53:22;33.20;44.70
57833;DHT22;43667;53.036;6.740;2022-08-14T11:56:01;33.40;44.10
57833;DHT22;43667;53.036;6.740;2022-08-14T11:58:30;33.40;44.50
57833;DHT22;43667;53.036;6.740;2022-08-14T12:01:04;33.50;44.10
57833;DHT22;43667;53.036;6.740;2022-08-14T12:03:38;33.60;43.60
57833;DHT22;43667;53.036;6.740;2022-08-14T12:06:06;33.50;43.50
57833;DHT22;43667;53.036;6.740;2022-08-14T12:08:36;33.10;43.80
57833;DHT22;43667;53.036;6.740;2022-08-14T12:11:04;33.10;44.30
57833;DHT22;43667;53.036;6.740;2022-08-14T12:13:31;33.10;43.90
57833;DHT22;43667;53.036;6.740;2022-08-14T12:16:00;33.20;44.00
57833;DHT22;43667;53.036;6.740;2022-08-14T12:18:34;33.40;44.00
57833;DHT22;43667;53.036;6.740;2022-08-14T12:21:10;33.60;43.60
57833;DHT22;43667;53.036;6.740;2022-08-14T12:23:37;33.90;42.50
57833;DHT22;43667;53.036;6.740;2022-08-14T12:26:04;34.00;42.20
57833;DHT22;43667;53.036;6.740;2022-08-14T12:28:30;33.90;42.00
57833;DHT22;43667;53.036;6.740;2022-08-14T12:30:55;33.90;41.90
57833;DHT22;43667;53.036;6.740;2022-08-14T12:35:51;33.80;42.00
57833;DHT22;43667;53.036;6.740;2022-08-14T12:38:17;33.70;42.60
57833;DHT22;43667;53.036;6.740;2022-08-14T12:40:52;33.60;42.10
57833;DHT22;43667;53.036;6.740;2022-08-14T12:43:19;33.50;41.90
57833;DHT22;43667;53.036;6.740;2022-08-14T12:45:53;33.40;42.50
57833;DHT22;43667;53.036;6.740;2022-08-14T12:48:23;33.20;42.40
57833;DHT22;43667;53.036;6.740;2022-08-14T12:50:50;32.90;43.00
57833;DHT22;43667;53.036;6.740;2022-08-14T12:53:17;32.90;43.60
57833;DHT22;43667;53.036;6.740;2022-08-14T12:55:45;33.00;43.60
57833;DHT22;43667;53.036;6.740;2022-08-14T12:58:11;33.10;43.40
57833;DHT22;43667;53.036;6.740;2022-08-14T13:00:46;32.70;43.50
57833;DHT22;43667;53.036;6.740;2022-08-14T13:03:28;32.80;44.30
57833;DHT22;43667;53.036;6.740;2022-08-14T13:05:54;33.10;44.10
57833;DHT22;43667;53.036;6.740;2022-08-14T13:08:21;33.40;43.10
57833;DHT22;43667;53.036;6.740;2022-08-14T13:10:49;33.50;42.40
57833;DHT22;43667;53.036;6.740;2022-08-14T13:13:16;33.50;42.10
57833;DHT22;43667;53.036;6.740;2022-08-14T13:15:43;33.40;42.10
57833;DHT22;43667;53.036;6.740;2022-08-14T13:18:12;33.40;42.50
57833;DHT22;43667;53.036;6.740;2022-08-14T13:20:40;33.10;42.80
57833;DHT22;43667;53.036;6.740;2022-08-14T13:23:07;32.80;43.10
57833;DHT22;43667;53.036;6.740;2022-08-14T13:25:34;32.80;44.00
57833;DHT22;43667;53.036;6.740;2022-08-14T13:28:02;32.80;43.90
57833;DHT22;43667;53.036;6.740;2022-08-14T13:30:30;33.20;43.40
57833;DHT22;43667;53.036;6.740;2022-08-14T13:32:56;33.40;42.90
57833;DHT22;43667;53.036;6.740;2022-08-14T13:35:22;33.60;42.40
57833;DHT22;43667;53.036;6.740;2022-08-14T13:37:48;33.70;42.60
57833;DHT22;43667;53.036;6.740;2022-08-14T13:40:16;33.70;42.10
57833;DHT22;43667;53.036;6.740;2022-08-14T13:42:45;33.60;42.00
57833;DHT22;43667;53.036;6.740;2022-08-14T13:45:12;33.90;41.90
57833;DHT22;43667;53.036;6.740;2022-08-14T13:47:40;34.00;41.70
57833;DHT22;43667;53.036;6.740;2022-08-14T13:50:10;34.20;41.20
57833;DHT22;43667;53.036;6.740;2022-08-14T13:55:10;34.20;41.30
57833;DHT22;43667;53.036;6.740;2022-08-14T13:57:40;34.00;41.60
57833;DHT22;43667;53.036;6.740;2022-08-14T14:00:09;33.70;42.00
57833;DHT22;43667;53.036;6.740;2022-08-14T14:02:38;33.40;41.80
57833;DHT22;43667;53.036;6.740;2022-08-14T14:05:05;33.30;42.10
57833;DHT22;43667;53.036;6.740;2022-08-14T14:07:32;33.30;42.00
57833;DHT22;43667;53.036;6.740;2022-08-14T14:10:04;33.40;42.10
57833;DHT22;43667;53.036;6.740;2022-08-14T14:12:30;33.60;42.00
57833;DHT22;43667;53.036;6.740;2022-08-14T14:14:58;33.80;42.60
57833;DHT22;43667;53.036;6.740;2022-08-14T14:17:25;34.00;41.80
57833;DHT22;43667;53.036;6.740;2022-08-14T14:19:51;34.20;41.30
57833;DHT22;43667;53.036;6.740;2022-08-14T14:22:17;34.30;41.10
57833;DHT22;43667;53.036;6.740;2022-08-14T14:24:43;34.40;41.30
57833;DHT22;43667;53.036;6.740;2022-08-14T14:27:12;34.40;41.80
57833;DHT22;43667;53.036;6.740;2022-08-14T14:29:44;34.40;41.50
57833;DHT22;43667;53.036;6.740;2022-08-14T14:32:12;34.50;40.70
57833;DHT22;43667;53.036;6.740;2022-08-14T14:34:38;34.30;40.60
57833;DHT22;43667;53.036;6.740;2022-08-14T14:37:08;34.10;41.10
57833;DHT22;43667;53.036;6.740;2022-08-14T14:39:36;33.80;42.70
57833;DHT22;43667;53.036;6.740;2022-08-14T14:42:04;33.70;42.00
57833;DHT22;43667;53.036;6.740;2022-08-14T14:44:38;33.80;42.00
57833;DHT22;43667;53.036;6.740;2022-08-14T14:47:12;34.20;42.40
57833;DHT22;43667;53.036;6.740;2022-08-14T14:49:41;34.40;42.00
57833;DHT22;43667;53.036;6.740;2022-08-14T14:52:08;34.50;41.30
57833;DHT22;43667;53.036;6.740;2022-08-14T14:54:34;34.60;41.20
57833;DHT22;43667;53.036;6.740;2022-08-14T14:57:04;34.70;41.00
57833;DHT22;43667;53.036;6.740;2022-08-14T14:59:30;34.70;40.80
57833;DHT22;43667;53.036;6.740;2022-08-14T15:02:02;34.90;40.50
57833;DHT22;43667;53.036;6.740;2022-08-14T15:04:34;34.80;40.90
57833;DHT22;43667;53.036;6.740;2022-08-14T15:07:00;34.40;40.10
57833;DHT22;43667;53.036;6.740;2022-08-14T15:09:27;34.00;40.80
57833;DHT22;43667;53.036;6.740;2022-08-14T15:11:53;33.80;41.50
57833;DHT22;43667;53.036;6.740;2022-08-14T15:14:19;33.50;42.00
57833;DHT22;43667;53.036;6.740;2022-08-14T15:16:46;33.50;42.70
57833;DHT22;43667;53.036;6.740;2022-08-14T15:19:11;33.30;43.30
57833;DHT22;43667;53.036;6.740;2022-08-14T15:21:37;33.50;42.60
57833;DHT22;43667;53.036;6.740;2022-08-14T15:24:03;33.50;42.30
57833;DHT22;43667;53.036;6.740;2022-08-14T15:26:29;33.40;42.20
57833;DHT22;43667;53.036;6.740;2022-08-14T15:28:54;33.20;42.90
57833;DHT22;43667;53.036;6.740;2022-08-14T15:31:20;33.10;42.70
57833;DHT22;43667;53.036;6.740;2022-08-14T15:33:45;33.20;43.30
57833;DHT22;43667;53.036;6.740;2022-08-14T15:36:30;33.20;42.50
57833;DHT22;43667;53.036;6.740;2022-08-14T15:38:56;33.20;43.00
57833;DHT22;43667;53.036;6.740;2022-08-14T15:41:23;33.50;42.90
57833;DHT22;43667;53.036;6.740;2022-08-14T15:43:49;34.20;42.80
57833;DHT22;43667;53.036;6.740;2022-08-14T15:46:14;34.70;40.90
57833;DHT22;43667;53.036;6.740;2022-08-14T15:48:40;35.20;40.10
57833;DHT22;43667;53.036;6.740;2022-08-14T15:51:07;35.90;40.40
57833;DHT22;43667;53.036;6.740;2022-08-14T15:53:33;36.00;39.20